Skip Navigation LinksHome page > Weather > Current weather Skip Navigation Links

Current Weather

Ndjamena, Chad

For information only: do not use for flight planning or navigation.
Latest weather
Observation time Tuesday, October 6, 2015 2:00 AM WAT
Local time Tuesday, October 6, 2015 2:16 AM WAT
Flight conditions Visual Meteorological Conditions
Wind direction South (170°)
Wind speed 6 mph
Visibility 6.2 mi.
Sky condition
Ceiling unlimited
Sky clear
Temperature 79°F
Dewpoint 77°F
Altimeter 29.85 in.Hg
Derived measurements
Relative humidity 94%
Heat index 79°F
Density altitude 2065 ft.
Ceiling and visibility OK.
No significant changes expected in the next two hours.
METAR FTTJ 060100Z 17005KT CAVOK 26/25 Q1011 NOSIG


Location code

InnerDrive.Weather 4.0.5722.1 Release CLR 4.0.30319.34014
Copyright ©2015 Inner Drive Technology. All rights reserved. Portions Copyright ©1986-2015 David Braverman.

Find weather

Site navigation

Skip Navigation Links

Place info

Page info

PayPal - The safer, easier way to pay online!

Return home.

Copyright ©2015 Inner Drive Technology. Purveyors of fine, hand-crafted computer software. Page printed 2015-10-06T01:16:55 UTC.